Time;durP1;ratioP1;P1;durP2;ratioP2;P2;SDS_P1;SDS_P2;PMS_P1;PMS_P2;Temp;Humidity;BMP_temperature;BMP_pressure;BME280_temperature;BME280_humidity;BME280_pressure;Samples;Min_cycle;Max_cycle;Signal;HPM_P1;HPM_P2
2023/04/28 00:00:27;;;;;;;13.85;10.05;;;;;;;-146.25;97.09;52189.78;2071335;28;36436;-68
2023/04/28 00:01:28;;;;;;;15.15;9.27;;;;;;;-146.25;97.76;52175.56;2071944;28;28568;-68
2023/04/28 00:02:30;;;;;;;12.95;9.32;;;;;;;-146.25;97.17;52189.78;2064730;28;35518;-68
2023/04/28 00:03:32;;;;;;;15.43;9.65;;;;;;;-146.25;97.58;52210.03;2063993;28;37730;-68
2023/04/28 00:04:34;;;;;;;15.50;8.93;;;;;;;-146.25;97.83;52193.81;2064530;28;33446;-68
2023/04/28 00:05:36;;;;;;;12.55;9.02;;;;;;;-146.25;97.34;52183.69;2064305;28;36733;-68
2023/04/28 00:06:39;;;;;;;17.20;9.88;;;;;;;-146.25;97.09;52183.69;2072522;28;20161;-68
2023/04/28 00:07:41;;;;;;;14.82;9.48;;;;;;;-146.25;97.51;52161.38;2071777;28;32345;-67
2023/04/28 00:08:43;;;;;;;14.60;9.57;;;;;;;-146.25;96.97;52214.09;2064440;28;34738;-68
2023/04/28 00:09:45;;;;;;;15.40;10.32;;;;;;;-146.25;97.73;52181.66;2064583;28;34173;-68
2023/04/28 00:10:46;;;;;;;16.20;9.65;;;;;;;-146.25;97.81;52167.47;2064326;28;36041;-68
2023/04/28 00:11:48;;;;;;;14.02;10.27;;;;;;;-146.25;96.84;52234.38;2064298;28;27707;-68
2023/04/28 00:12:50;;;;;;;16.15;10.27;;;;;;;-146.25;97.22;52206.00;2064573;28;33830;-67
2023/04/28 00:13:51;;;;;;;17.42;9.88;;;;;;;-146.25;97.44;52173.56;2064320;28;37439;-68
2023/04/28 00:14:53;;;;;;;16.60;10.50;;;;;;;-146.25;97.55;52181.66;2064210;28;36866;-67
2023/04/28 00:15:58;;;;;;;15.48;10.70;;;;;;;-146.25;97.03;52201.94;2071934;28;33938;-68
2023/04/28 00:17:02;;;;;;;14.00;10.45;;;;;;;-146.25;96.86;52159.34;2071912;28;36207;-68
2023/04/28 00:18:04;;;;;;;15.18;9.65;;;;;;;-146.25;97.69;52183.69;2071174;28;27780;-67
2023/04/28 00:19:06;;;;;;;14.70;10.45;;;;;;;-146.25;97.88;52193.81;2064509;28;35188;-68
2023/04/28 00:20:09;;;;;;;14.68;10.10;;;;;;;-146.25;97.90;52197.88;2064357;28;35665;-67
2023/04/28 00:21:13;;;;;;;13.98;10.45;;;;;;;-146.25;97.52;52191.81;2064660;28;27625;-68
2023/04/28 00:22:14;;;;;;;15.65;9.82;;;;;;;-146.25;97.87;52181.66;2064200;28;36266;-67
2023/04/28 00:23:16;;;;;;;13.70;10.13;;;;;;;-146.25;97.45;52183.69;2064995;28;20042;-67
2023/04/28 00:24:18;;;;;;;14.95;10.07;;;;;;;-146.25;97.53;52177.59;2064144;28;37267;-68
2023/04/28 00:25:19;;;;;;;18.77;10.77;;;;;;;-146.25;97.75;52197.88;2064519;28;35751;-69
2023/04/28 00:26:23;;;;;;;18.10;11.02;;;;;;;-146.25;98.14;52191.81;2064446;28;34753;-67
2023/04/28 00:27:27;;;;;;;18.60;10.75;;;;;;;-146.25;98.54;52214.09;2064322;28;33694;-68
2023/04/28 00:28:29;;;;;;;14.07;10.57;;;;;;;-146.25;98.28;52177.59;2064701;28;20090;-69
2023/04/28 00:29:35;;;;;;;15.82;10.23;;;;;;;-146.25;98.19;52216.13;2072783;28;20073;-69
2023/04/28 00:30:37;;;;;;;17.85;10.95;;;;;;;-146.25;98.52;52171.53;2071774;28;22213;-68
2023/04/28 00:31:39;;;;;;;17.25;11.18;;;;;;;-146.25;98.68;52191.81;2072236;28;20061;-68
2023/04/28 00:32:41;;;;;;;15.45;10.25;;;;;;;-146.25;98.52;52173.56;2071807;28;26279;-69
2023/04/28 00:33:43;;;;;;;17.48;11.13;;;;;;;-146.25;98.16;52197.88;2072475;28;20050;-69
2023/04/28 00:34:45;;;;;;;18.77;11.63;;;;;;;-146.25;98.04;52206.00;2064387;28;20035;-68
2023/04/28 00:35:47;;;;;;;18.45;11.63;;;;;;;-146.25;98.03;52185.72;2071588;28;28909;-68
2023/04/28 00:36:49;;;;;;;17.45;11.55;;;;;;;-146.25;98.14;52228.28;2071451;28;24889;-68
2023/04/28 00:37:51;;;;;;;15.82;11.00;;;;;;;-146.25;98.22;52230.31;2072160;28;23192;-68
2023/04/28 00:38:52;;;;;;;20.30;12.93;;;;;;;-146.25;98.97;52197.88;2071943;28;21527;-68
2023/04/28 00:39:55;;;;;;;16.10;11.68;;;;;;;-146.25;98.75;52206.00;2072598;28;20046;-69
2023/04/28 00:40:57;;;;;;;19.77;12.05;;;;;;;-146.25;98.73;52175.56;2063640;28;26460;-69
2023/04/28 00:41:59;;;;;;;21.40;13.40;;;;;;;-146.25;99.03;52214.09;2064327;28;20047;-68
2023/04/28 00:43:03;;;;;;;15.70;11.45;;;;;;;-146.25;99.16;52197.88;2071304;28;20950;-68
2023/04/28 00:44:05;;;;;;;17.90;11.75;;;;;;;-146.25;98.73;52193.81;2064028;28;28782;-68
2023/04/28 00:45:08;;;;;;;23.15;12.48;;;;;;;-146.25;98.72;52197.88;2055820;28;20059;-69
2023/04/28 00:46:12;;;;;;;18.77;12.85;;;;;;;-146.25;98.86;52179.63;2063786;28;29109;-68
2023/04/28 00:47:16;;;;;;;18.00;11.80;;;;;;;-146.25;99.07;52175.56;2064103;28;20041;-68
2023/04/28 00:48:19;;;;;;;21.05;13.05;;;;;;;-146.25;99.47;52218.16;2063813;28;20047;-69
2023/04/28 00:49:21;;;;;;;18.88;12.32;;;;;;;-146.25;99.52;52206.00;2056560;28;20047;-69
2023/04/28 00:50:24;;;;;;;18.17;12.95;;;;;;;-146.25;99.35;52208.03;2056222;28;23870;-68
2023/04/28 00:51:29;;;;;;;20.05;12.52;;;;;;;-146.25;99.14;52197.88;2071728;28;23664;-69
2023/04/28 00:52:31;;;;;;;17.98;13.15;;;;;;;-146.25;99.25;52193.81;2071849;28;25307;-68
2023/04/28 00:53:33;;;;;;;19.58;13.20;;;;;;;-146.25;99.01;52206.00;2071996;28;23611;-69
2023/04/28 00:54:35;;;;;;;18.40;12.48;;;;;;;-146.25;99.19;52208.03;2071680;28;26490;-69
2023/04/28 00:55:38;;;;;;;19.13;12.27;;;;;;;-146.25;99.21;52203.97;2063774;28;22676;-69
2023/04/28 00:56:40;;;;;;;21.15;12.90;;;;;;;-146.25;98.97;52195.84;2064132;28;20047;-69
2023/04/28 00:57:42;;;;;;;23.75;14.02;;;;;;;-146.25;98.80;52177.59;2063926;28;30544;-69
2023/04/28 00:58:46;;;;;;;18.88;12.07;;;;;;;-146.25;99.20;52197.88;2071499;28;30979;-68
2023/04/28 00:59:50;;;;;;;19.90;12.73;;;;;;;-146.25;98.37;52222.22;2063436;28;24253;-69
2023/04/28 01:01:04;;;;;;;19.17;12.73;;;;;;;-146.25;98.43;52201.94;2064357;28;20035;-68
2023/04/28 01:02:06;;;;;;;18.80;12.35;;;;;;;-146.25;98.84;52189.78;2063557;28;27601;-68
2023/04/28 01:03:08;;;;;;;18.45;13.07;;;;;;;-146.25;98.38;52216.13;2065077;28;20568;-69
2023/04/28 01:04:10;;;;;;;21.00;12.50;;;;;;;-146.25;98.15;52212.06;2072150;28;20081;-68
2023/04/28 01:05:15;;;;;;;21.50;13.27;;;;;;;-146.25;98.12;52193.81;2064175;28;20856;-68
2023/04/28 01:06:22;;;;;;;16.92;12.80;;;;;;;-146.25;97.79;52169.50;2064327;28;20047;-68
2023/04/28 01:07:25;;;;;;;20.77;13.23;;;;;;;-146.25;97.87;52181.66;2072305;28;20050;-68
2023/04/28 01:08:30;;;;;;;21.40;13.60;;;;;;;-146.25;97.44;52236.41;2070689;28;20180;-68
2023/04/28 01:09:31;;;;;;;19.17;12.60;;;;;;;-146.25;98.25;52195.84;2072316;28;20046;-68
2023/04/28 01:10:34;;;;;;;21.15;12.23;;;;;;;-146.25;98.26;52218.16;2070887;28;20070;-68
2023/04/28 01:11:43;;;;;;;22.58;12.68;;;;;;;-146.25;98.30;52216.13;2064966;28;20090;-68
2023/04/28 01:12:49;;;;;;;22.00;12.70;;;;;;;-146.25;98.16;52195.84;2071394;28;20042;-68
2023/04/28 01:13:51;;;;;;;20.88;12.25;;;;;;;-146.25;97.76;52212.06;2072213;28;20039;-69
2023/04/28 01:14:53;;;;;;;20.67;12.95;;;;;;;-146.25;97.57;52201.94;2071869;28;20038;-68
2023/04/28 01:15:55;;;;;;;19.90;12.63;;;;;;;-146.25;97.60;52203.97;2072350;28;20116;-68
2023/04/28 01:16:57;;;;;;;19.40;13.13;;;;;;;-146.25;97.84;52201.94;2071551;28;20785;-67
2023/04/28 01:17:59;;;;;;;19.88;12.27;;;;;;;-146.25;97.75;52199.91;2072124;28;20109;-68
2023/04/28 01:19:14;;;;;;;19.25;12.38;;;;;;;-146.25;97.53;52214.09;2071376;28;20046;-68
2023/04/28 01:20:16;;;;;;;18.63;12.32;;;;;;;-146.25;97.15;52189.78;2072182;28;20042;-68
2023/04/28 01:21:31;;;;;;;20.17;12.40;;;;;;;-146.25;97.52;52228.28;2069563;28;20046;-68
2023/04/28 01:22:36;;;;;;;17.60;12.43;;;;;;;-146.25;97.46;52201.94;2066194;28;20998;-68
2023/04/28 01:23:38;;;;;;;19.63;13.10;;;;;;;-146.25;97.58;52206.00;2071801;28;20030;-67
2023/04/28 01:24:40;;;;;;;16.30;12.05;;;;;;;-146.25;97.55;52230.31;2071931;28;20042;-67
2023/04/28 01:25:43;;;;;;;19.13;12.57;;;;;;;-146.25;96.92;52222.22;2055807;28;20074;-67
2023/04/28 01:26:48;;;;;;;20.73;12.05;;;;;;;-146.25;97.35;52175.56;2064101;28;20038;-68
2023/04/28 01:27:49;;;;;;;18.63;12.55;;;;;;;-146.25;97.15;52208.03;2064238;28;22635;-68
2023/04/28 01:28:52;;;;;;;21.38;12.48;;;;;;;-146.25;97.18;52175.56;2071943;28;20812;-68
2023/04/28 01:29:54;;;;;;;19.00;11.63;;;;;;;-146.25;96.81;52224.25;2071927;28;20050;-68
2023/04/28 01:30:56;;;;;;;17.95;12.48;;;;;;;-146.25;97.53;52191.81;2071671;28;20041;-68
2023/04/28 01:31:58;;;;;;;19.55;12.40;;;;;;;-146.25;96.83;52201.94;2071782;28;20047;-68
2023/04/28 01:33:01;;;;;;;19.95;12.73;;;;;;;-146.25;96.94;52199.91;2071931;28;20173;-68
2023/04/28 01:34:05;;;;;;;16.88;12.23;;;;;;;-146.25;97.18;52242.50;2063854;28;29543;-67
2023/04/28 01:35:07;;;;;;;19.50;12.40;;;;;;;-146.25;97.09;52189.78;2071673;28;20879;-67
2023/04/28 01:36:10;;;;;;;19.00;13.18;;;;;;;-146.25;97.23;52236.41;2071913;28;20043;-67
2023/04/28 01:37:12;;;;;;;21.92;12.50;;;;;;;-146.25;97.30;52214.09;2072008;28;23251;-67
2023/04/28 01:38:14;;;;;;;21.63;12.60;;;;;;;-146.25;96.83;52214.09;2071667;28;24906;-68
2023/04/28 01:39:16;;;;;;;20.30;13.05;;;;;;;-146.25;97.45;52153.28;2071920;28;20141;-67
2023/04/28 01:40:18;;;;;;;18.25;12.65;;;;;;;-146.25;97.18;52210.03;2071453;28;20050;-69
2023/04/28 01:41:20;;;;;;;18.00;12.95;;;;;;;-146.25;96.84;52177.59;2063344;28;26821;-67
2023/04/28 01:42:21;;;;;;;21.52;12.90;;;;;;;-146.25;97.16;52183.69;2063708;28;20035;-68
2023/04/28 01:43:29;;;;;;;21.77;12.93;;;;;;;-146.25;97.22;52201.94;2063904;28;20936;-68
2023/04/28 01:44:32;;;;;;;19.05;13.23;;;;;;;-146.25;97.53;52191.81;2071915;28;20188;-68
2023/04/28 01:45:34;;;;;;;21.67;12.98;;;;;;;-146.25;97.38;52189.78;2070940;28;20039;-68
2023/04/28 01:46:36;;;;;;;22.45;13.57;;;;;;;-146.25;97.29;52226.25;2071466;28;33285;-68
2023/04/28 01:47:40;;;;;;;21.08;12.50;;;;;;;-146.25;97.44;52171.53;2071207;28;29074;-68
2023/04/28 01:48:41;;;;;;;20.63;13.07;;;;;;;-146.25;97.19;52163.41;2071767;28;20061;-67
2023/04/28 01:49:43;;;;;;;19.88;13.20;;;;;;;-146.25;97.91;52208.03;2071322;28;30261;-68
2023/04/28 01:50:45;;;;;;;20.25;12.90;;;;;;;-146.25;97.65;52212.06;2064646;28;20054;-69
2023/04/28 01:51:47;;;;;;;19.65;12.80;;;;;;;-146.25;97.80;52206.00;2064472;28;20096;-68
2023/04/28 01:52:49;;;;;;;19.63;13.30;;;;;;;-146.25;97.98;52201.94;2071415;28;20022;-68
2023/04/28 01:53:53;;;;;;;20.70;13.38;;;;;;;-146.25;98.19;52193.81;2072523;28;20799;-67
2023/04/28 01:54:54;;;;;;;21.05;12.55;;;;;;;-146.25;98.12;52197.88;2063956;28;20742;-69
2023/04/28 01:55:57;;;;;;;19.23;12.63;;;;;;;-146.25;97.95;52185.72;2071111;28;33339;-68
2023/04/28 01:56:59;;;;;;;21.63;13.57;;;;;;;-146.25;98.06;52230.31;2071600;28;20130;-68
2023/04/28 01:58:01;;;;;;;18.67;12.85;;;;;;;-146.25;98.15;52228.28;2071655;28;20955;-68
2023/04/28 01:59:06;;;;;;;18.58;12.77;;;;;;;-146.25;98.29;52165.44;2071734;28;20220;-68
2023/04/28 02:00:09;;;;;;;19.30;12.98;;;;;;;-146.25;98.20;52179.63;2070864;28;26010;-68
2023/04/28 02:01:22;;;;;;;21.40;13.75;;;;;;;-146.25;97.99;52171.53;2062280;28;20035;-67
2023/04/28 02:02:24;;;;;;;21.48;13.30;;;;;;;-146.25;98.11;52179.63;2063238;28;20046;-68
2023/04/28 02:03:30;;;;;;;20.42;13.35;;;;;;;-146.25;98.24;52151.25;2063968;28;20035;-67
2023/04/28 02:04:32;;;;;;;21.17;13.77;;;;;;;-146.25;98.33;52212.06;2063171;28;34336;-68
2023/04/28 02:05:34;;;;;;;19.63;13.27;;;;;;;-146.25;98.18;52179.63;2056108;28;20082;-67
2023/04/28 02:06:36;;;;;;;22.42;14.30;;;;;;;-146.25;98.17;52201.94;2055321;28;20895;-68
2023/04/28 02:07:37;;;;;;;22.58;13.70;;;;;;;-146.25;98.50;52177.59;2055480;28;20155;-67
2023/04/28 02:08:39;;;;;;;24.02;13.82;;;;;;;-146.25;98.56;52220.19;2054368;28;32013;-68
2023/04/28 02:09:41;;;;;;;21.50;14.25;;;;;;;-146.25;98.44;52224.25;2063677;28;23113;-68
2023/04/28 02:10:46;;;;;;;21.98;14.10;;;;;;;-146.25;98.43;52163.41;2062932;28;28019;-68
2023/04/28 02:11:49;;;;;;;24.88;14.82;;;;;;;-146.25;98.02;52191.81;2063481;28;20050;-67
2023/04/28 02:12:50;;;;;;;19.15;13.63;;;;;;;-146.25;98.10;52169.50;2055087;28;20885;-67
2023/04/28 02:13:53;;;;;;;21.90;13.95;;;;;;;-146.25;98.05;52189.78;2055830;28;20031;-68
2023/04/28 02:14:57;;;;;;;23.30;14.52;;;;;;;-146.25;98.67;52203.97;2062461;28;37595;-67
2023/04/28 02:16:01;;;;;;;20.45;14.13;;;;;;;-146.25;98.65;52210.03;2055662;28;20047;-68
2023/04/28 02:17:04;;;;;;;24.85;14.23;;;;;;;-146.25;98.32;52183.69;2063204;28;20054;-67
2023/04/28 02:18:09;;;;;;;23.20;14.43;;;;;;;-146.25;98.92;52214.09;2063648;28;20039;-67
2023/04/28 02:19:14;;;;;;;22.02;14.48;;;;;;;-146.25;98.65;52214.09;2056049;28;20928;-68
2023/04/28 02:20:16;;;;;;;22.02;14.70;;;;;;;-146.25;98.64;52220.19;2063178;28;36428;-67
2023/04/28 02:21:18;;;;;;;24.20;14.45;;;;;;;-146.25;98.91;52193.81;2062774;28;37726;-68
2023/04/28 02:22:20;;;;;;;22.38;14.95;;;;;;;-146.25;98.79;52191.81;2063538;28;28427;-67
2023/04/28 02:23:21;;;;;;;25.20;14.32;;;;;;;-146.25;98.92;52199.91;2063508;28;32185;-68
2023/04/28 02:24:23;;;;;;;24.73;15.02;;;;;;;-146.25;99.01;52214.09;2063521;28;28857;-67
2023/04/28 02:25:25;;;;;;;25.95;15.68;;;;;;;-146.25;98.78;52157.34;2063297;28;30307;-68
2023/04/28 02:26:26;;;;;;;24.25;15.20;;;;;;;-146.25;98.93;52191.81;2063981;28;30281;-68
2023/04/28 02:27:28;;;;;;;25.30;15.52;;;;;;;-146.25;98.88;52189.78;2064021;28;20122;-68
2023/04/28 02:28:30;;;;;;;23.65;14.85;;;;;;;-146.25;98.91;52167.47;2063736;28;29680;-67
2023/04/28 02:29:32;;;;;;;23.88;15.07;;;;;;;-146.25;99.00;52199.91;2063712;28;30304;-67
2023/04/28 02:30:33;;;;;;;23.77;15.23;;;;;;;-146.25;99.17;52185.72;2064078;28;20109;-68
2023/04/28 02:31:35;;;;;;;21.83;15.30;;;;;;;-146.25;99.26;52210.03;2062956;28;25263;-67
2023/04/28 02:32:39;;;;;;;22.40;14.85;;;;;;;-146.25;99.19;52201.94;2055528;28;20972;-68
2023/04/28 02:33:41;;;;;;;24.48;15.40;;;;;;;-146.25;99.11;52206.00;2062947;28;28607;-67
2023/04/28 02:34:43;;;;;;;25.38;15.20;;;;;;;-146.25;99.37;52203.97;2063472;28;21014;-67
2023/04/28 02:35:45;;;;;;;27.55;15.98;;;;;;;-146.25;99.37;52203.97;2063048;28;20035;-68
2023/04/28 02:36:47;;;;;;;22.90;14.68;;;;;;;-146.25;99.46;52203.97;2063020;28;20923;-68
2023/04/28 02:37:49;;;;;;;26.15;15.40;;;;;;;-146.25;99.38;52171.53;2062980;28;20810;-67
2023/04/28 02:38:54;;;;;;;25.90;15.23;;;;;;;-146.25;99.57;52163.41;2063187;28;20085;-68
2023/04/28 02:39:57;;;;;;;26.30;15.57;;;;;;;-146.25;99.50;52201.94;2063263;28;21357;-68
2023/04/28 02:41:07;;;;;;;26.17;14.98;;;;;;;-146.25;99.64;52193.81;2064345;28;20054;-67
2023/04/28 02:42:10;;;;;;;27.58;15.40;;;;;;;-146.25;99.91;52234.38;2062801;28;20046;-68
2023/04/28 02:43:12;;;;;;;22.35;15.13;;;;;;;-146.25;99.58;52226.25;2063271;28;29685;-67
2023/04/28 02:44:13;;;;;;;25.45;15.38;;;;;;;-146.25;99.59;52199.91;2064133;28;20050;-67
2023/04/28 02:45:15;;;;;;;21.73;14.98;;;;;;;-146.25;99.49;52191.81;2063721;28;27255;-68
2023/04/28 02:46:17;;;;;;;21.70;14.57;;;;;;;-146.25;99.59;52201.94;2063095;28;20043;-67
2023/04/28 02:47:20;;;;;;;25.30;15.68;;;;;;;-146.25;99.62;52185.72;2063234;28;27856;-67
2023/04/28 02:48:23;;;;;;;24.75;15.65;;;;;;;-146.25;99.46;52212.06;2063197;28;20043;-68
2023/04/28 02:49:24;;;;;;;24.40;16.05;;;;;;;-146.25;99.34;52191.81;2063078;28;24504;-68
2023/04/28 02:50:29;;;;;;;22.38;14.38;;;;;;;-146.25;99.39;52210.03;2063030;28;21239;-68
2023/04/28 02:51:31;;;;;;;24.80;15.20;;;;;;;-146.25;99.39;52234.38;2063686;28;20039;-68
2023/04/28 02:52:33;;;;;;;21.85;15.70;;;;;;;-146.25;99.18;52206.00;2063803;28;21182;-69
2023/04/28 02:53:35;;;;;;;25.77;15.73;;;;;;;-146.25;99.32;52187.75;2063679;28;20182;-68
2023/04/28 02:54:37;;;;;;;25.17;15.98;;;;;;;-146.25;99.39;52212.06;2055083;28;20050;-68
2023/04/28 02:55:39;;;;;;;24.98;16.13;;;;;;;-146.25;99.41;52201.94;2063306;28;20042;-68
2023/04/28 02:56:41;;;;;;;26.02;15.50;;;;;;;-146.25;99.30;52230.31;2063174;28;20127;-69
2023/04/28 02:57:42;;;;;;;26.83;15.80;;;;;;;-146.25;99.42;52197.88;2062303;28;20051;-68
2023/04/28 02:58:44;;;;;;;21.15;14.45;;;;;;;-146.25;99.17;52201.94;2071602;28;20774;-68
2023/04/28 02:59:46;;;;;;;26.20;15.35;;;;;;;-146.25;98.98;52226.25;2063378;28;20166;-69
2023/04/28 03:00:48;;;;;;;26.05;15.77;;;;;;;-146.25;98.84;52206.00;2054462;28;20040;-68
2023/04/28 03:01:50;;;;;;;27.45;15.73;;;;;;;-146.25;98.75;52214.09;2063589;28;20920;-68
2023/04/28 03:02:53;;;;;;;22.92;15.10;;;;;;;-146.25;98.59;52181.66;2071379;28;20042;-68
2023/04/28 03:03:55;;;;;;;24.85;15.07;;;;;;;-146.25;98.14;52210.03;2062836;28;33075;-69
2023/04/28 03:04:57;;;;;;;23.90;14.73;;;;;;;-146.25;98.15;52210.03;2055123;28;20684;-68
2023/04/28 03:05:59;;;;;;;20.88;14.75;;;;;;;-146.25;98.04;52181.66;2063143;28;20050;-68
2023/04/28 03:07:01;;;;;;;24.48;15.20;;;;;;;-146.25;98.24;52206.00;2063411;28;20042;-68
2023/04/28 03:08:03;;;;;;;24.92;14.73;;;;;;;-146.25;97.88;52214.09;2055503;28;20042;-68
2023/04/28 03:09:05;;;;;;;20.50;14.65;;;;;;;-146.25;97.74;52212.06;2062625;28;23528;-69
2023/04/28 03:10:10;;;;;;;22.02;14.40;;;;;;;-146.25;97.46;52214.09;2063482;28;20050;-68
2023/04/28 03:11:12;;;;;;;24.33;14.27;;;;;;;-146.25;97.82;52212.06;2055377;28;20952;-69
2023/04/28 03:12:14;;;;;;;22.60;13.63;;;;;;;-146.25;97.41;52210.03;2055285;28;20058;-69
2023/04/28 03:13:16;;;;;;;20.88;14.35;;;;;;;-146.25;97.04;52214.09;2063521;28;20047;-69
2023/04/28 03:14:20;;;;;;;21.60;14.20;;;;;;;-146.25;97.25;52206.00;2071503;28;20054;-68
2023/04/28 03:15:22;;;;;;;21.38;14.23;;;;;;;-146.25;97.01;52220.19;2070325;28;23472;-68
2023/04/28 03:16:26;;;;;;;23.95;14.45;;;;;;;-146.25;96.94;52167.47;2062810;28;20829;-67
2023/04/28 03:17:28;;;;;;;20.98;14.27;;;;;;;-146.25;96.89;52220.19;2063194;28;20035;-68
2023/04/28 03:18:32;;;;;;;21.52;15.15;;;;;;;-146.25;96.96;52226.25;2063248;28;20077;-68
2023/04/28 03:19:34;;;;;;;21.17;14.10;;;;;;;-146.25;96.41;52181.66;2055247;28;20130;-69
2023/04/28 03:20:39;;;;;;;24.15;14.00;;;;;;;-146.25;96.70;52197.88;2063400;28;20861;-68
2023/04/28 03:21:40;;;;;;;20.05;13.57;;;;;;;-146.25;96.70;52222.22;2062977;28;20719;-68
2023/04/28 03:22:42;;;;;;;21.55;14.30;;;;;;;-146.25;96.25;52238.44;2063223;28;20101;-68
2023/04/28 03:23:44;;;;;;;20.30;13.60;;;;;;;-146.25;96.23;52230.31;2070629;28;25825;-68
2023/04/28 03:24:46;;;;;;;19.75;14.02;;;;;;;-146.25;96.39;52222.22;2063223;28;20833;-68
2023/04/28 03:25:50;;;;;;;20.25;13.30;;;;;;;-146.25;96.51;52157.34;2055352;28;20047;-68
2023/04/28 03:26:51;;;;;;;21.60;12.68;;;;;;;-146.25;96.10;52218.16;2063272;28;20059;-68
2023/04/28 03:27:53;;;;;;;22.00;14.30;;;;;;;-146.25;95.72;52197.88;2070839;28;20105;-68
2023/04/28 03:28:58;;;;;;;26.03;13.50;;;;;;;-146.25;96.08;52179.63;2063696;28;20081;-67
2023/04/28 03:30:00;;;;;;;19.75;13.32;;;;;;;-146.25;95.69;52218.16;2055386;28;20047;-68
2023/04/28 03:31:02;;;;;;;19.08;12.73;;;;;;;-146.25;95.84;52206.00;2047146;28;20883;-69
2023/04/28 03:32:05;;;;;;;18.27;12.88;;;;;;;-146.25;95.61;52218.16;2055516;28;20040;-69
2023/04/28 03:33:07;;;;;;;20.08;12.68;;;;;;;-146.25;95.16;52181.66;2063151;28;20050;-69
2023/04/28 03:34:09;;;;;;;20.42;13.50;;;;;;;-146.25;95.21;52191.81;2054986;28;20039;-67
2023/04/28 03:35:13;;;;;;;19.98;13.02;;;;;;;-146.25;94.90;52197.88;2063405;28;20063;-69
2023/04/28 03:36:15;;;;;;;20.40;12.55;;;;;;;-146.25;94.91;52193.81;2062546;28;20209;-69
2023/04/28 03:37:17;;;;;;;18.58;12.25;;;;;;;-146.25;94.81;52230.31;2063594;28;20023;-69
2023/04/28 03:38:20;;;;;;;20.85;12.90;;;;;;;-146.25;94.70;52234.38;2063053;28;23682;-68
2023/04/28 03:39:22;;;;;;;21.65;12.85;;;;;;;-146.25;94.84;52210.03;2063261;28;20035;-68
2023/04/28 03:40:23;;;;;;;18.98;12.73;;;;;;;-146.25;95.03;52206.00;2054916;28;20056;-68
2023/04/28 03:41:54;;;;;;;19.75;11.65;;;;;;;-146.25;94.83;52246.53;2046524;28;20095;-67
2023/04/28 03:43:15;;;;;;;22.85;12.10;;;;;;;-146.25;94.82;52208.03;2049122;28;21239;-67
2023/04/28 03:44:40;;;;;;;20.08;13.00;;;;;;;-146.25;95.17;52226.25;2067766;28;20082;-67
2023/04/28 03:45:42;;;;;;;19.33;12.65;;;;;;;-146.25;94.92;52246.53;2070765;28;24785;-68
2023/04/28 03:46:43;;;;;;;19.05;12.15;;;;;;;-146.25;95.00;52197.88;2070970;28;20039;-68
2023/04/28 03:47:46;;;;;;;22.23;12.65;;;;;;;-146.25;95.02;52222.22;2071420;28;20843;-67
2023/04/28 03:48:48;;;;;;;22.60;12.95;;;;;;;-146.25;94.95;52220.19;2070635;28;20030;-68
2023/04/28 03:49:52;;;;;;;21.08;12.13;;;;;;;-146.25;94.97;52216.13;2071170;28;20141;-68
2023/04/28 03:50:54;;;;;;;21.33;12.05;;;;;;;-146.25;95.07;52222.22;2070850;28;20039;-68
2023/04/28 03:51:59;;;;;;;20.63;13.10;;;;;;;-146.25;94.83;52195.84;2071408;28;20164;-68
2023/04/28 03:53:02;;;;;;;20.85;12.50;;;;;;;-146.25;94.70;52199.91;2070646;28;20055;-67
2023/04/28 03:54:04;;;;;;;18.60;12.45;;;;;;;-146.25;94.41;52197.88;2062841;28;21286;-68
2023/04/28 03:55:07;;;;;;;18.27;12.30;;;;;;;-146.25;94.70;52171.53;2055317;28;21051;-69
2023/04/28 03:56:09;;;;;;;21.63;12.13;;;;;;;-146.25;94.73;52179.63;2070778;28;24105;-69
2023/04/28 03:57:11;;;;;;;18.27;12.10;;;;;;;-146.25;94.82;52220.19;2070696;28;20729;-68
2023/04/28 03:58:15;;;;;;;21.33;12.68;;;;;;;-146.25;94.74;52218.16;2070386;28;33515;-69
2023/04/28 03:59:19;;;;;;;18.50;12.85;;;;;;;-146.25;94.75;52183.69;2070762;28;20050;-66
2023/04/28 04:00:23;;;;;;;20.15;12.88;;;;;;;-146.25;94.67;52224.25;2062951;28;20039;-69
2023/04/28 04:01:26;;;;;;;21.92;12.38;;;;;;;-146.25;94.49;52210.03;2055616;28;20051;-69
2023/04/28 04:02:28;;;;;;;19.45;12.00;;;;;;;-146.25;94.51;52201.94;2063046;28;20157;-68
2023/04/28 04:03:30;;;;;;;21.85;12.35;;;;;;;-146.25;94.14;52248.56;2062843;28;20121;-68
2023/04/28 04:04:32;;;;;;;19.00;12.20;;;;;;;-146.25;94.10;52193.81;2063572;28;25008;-68
2023/04/28 04:05:34;;;;;;;19.20;11.85;;;;;;;-146.25;94.10;52195.84;2070704;28;20152;-68
2023/04/28 04:06:36;;;;;;;20.67;11.60;;;;;;;-146.25;94.18;52218.16;2071268;28;20884;-69
2023/04/28 04:07:38;;;;;;;18.05;11.70;;;;;;;-146.25;94.10;52187.75;2070671;28;20899;-69
2023/04/28 04:08:40;;;;;;;16.70;12.00;;;;;;;-146.25;93.67;52216.13;2071004;28;20796;-69
2023/04/28 04:09:42;;;;;;;21.10;12.18;;;;;;;-146.25;93.70;52175.56;2072084;28;20043;-68
2023/04/28 04:10:45;;;;;;;17.33;11.35;;;;;;;-146.25;93.81;52210.03;2072140;28;20547;-69
2023/04/28 04:11:47;;;;;;;17.27;12.07;;;;;;;-146.25;93.85;52197.88;2063884;28;20050;-68
2023/04/28 04:12:49;;;;;;;17.38;11.95;;;;;;;-146.25;93.69;52226.25;2056372;28;20086;-69
2023/04/28 04:13:51;;;;;;;19.88;12.35;;;;;;;-146.25;93.58;52226.25;2064096;28;20899;-69
2023/04/28 04:14:55;;;;;;;20.65;11.73;;;;;;;-146.25;93.28;52212.06;2065337;28;20802;-69
2023/04/28 04:15:57;;;;;;;16.58;11.18;;;;;;;-146.25;93.41;52216.13;2071917;28;20066;-69
2023/04/28 04:16:59;;;;;;;19.00;11.55;;;;;;;-146.25;92.95;52218.16;2072254;28;20050;-69
2023/04/28 04:18:01;;;;;;;16.00;11.02;;;;;;;-146.25;93.17;52232.34;2072345;28;20043;-68
2023/04/28 04:19:14;;;;;;;20.08;11.50;;;;;;;-146.25;93.21;52177.59;2072284;28;20085;-67
2023/04/28 04:20:17;;;;;;;17.33;12.15;;;;;;;-146.25;93.13;52214.09;2072097;28;20252;-68
2023/04/28 04:21:19;;;;;;;15.68;10.65;;;;;;;-146.25;92.71;52155.31;2071991;28;20812;-68
2023/04/28 04:22:24;;;;;;;17.67;11.52;;;;;;;-146.25;93.05;52228.28;2071788;28;20173;-67
2023/04/28 04:23:28;;;;;;;18.35;11.40;;;;;;;-146.25;93.10;52214.09;2072449;28;20062;-68
2023/04/28 04:24:30;;;;;;;20.00;10.63;;;;;;;-146.25;92.69;52206.00;2072125;28;20145;-68
2023/04/28 04:25:31;;;;;;;18.00;11.43;;;;;;;-146.25;92.75;52238.44;2072133;28;20046;-67
2023/04/28 04:26:34;;;;;;;17.23;10.80;;;;;;;-146.25;92.45;52185.72;2071911;28;20031;-68
2023/04/28 04:27:38;;;;;;;18.10;11.43;;;;;;;-146.25;92.51;52206.00;2072016;28;20045;-67
2023/04/28 04:28:41;;;;;;;16.80;11.10;;;;;;;-146.25;91.54;52195.84;2056185;28;20182;-68
2023/04/28 04:29:44;;;;;;;15.90;10.73;;;;;;;-146.25;91.30;52216.13;2056280;28;20035;-67
2023/04/28 04:30:47;;;;;;;14.40;10.55;;;;;;;-146.25;90.49;52220.19;2056219;28;20047;-68
2023/04/28 04:31:49;;;;;;;17.88;10.63;;;;;;;-146.25;89.95;52252.63;2056017;28;24952;-66
2023/04/28 04:32:53;;;;;;;15.65;10.15;;;;;;;-146.25;88.62;52226.25;2064717;28;20039;-67
2023/04/28 04:33:55;;;;;;;15.43;10.35;;;;;;;-146.25;88.76;52208.03;2064868;28;20039;-67
2023/04/28 04:34:57;;;;;;;15.82;9.82;;;;;;;-146.25;88.53;52189.78;2072047;28;20251;-67
2023/04/28 04:35:59;;;;;;;17.30;10.75;;;;;;;-146.25;88.18;52228.28;2072118;28;20207;-67
2023/04/28 04:37:01;;;;;;;13.65;9.65;;;;;;;-146.25;87.71;52201.94;2056169;28;20046;-67
2023/04/28 04:38:03;;;;;;;16.00;10.23;;;;;;;-146.25;87.34;52183.69;2064020;28;20132;-67
2023/04/28 04:39:05;;;;;;;15.63;10.02;;;;;;;-146.25;87.57;52212.06;2071763;28;20661;-67
2023/04/28 04:40:08;;;;;;;15.18;9.88;;;;;;;-146.25;86.73;52224.25;2063854;28;28359;-67
2023/04/28 04:41:21;;;;;;;14.48;9.80;;;;;;;-146.25;86.30;52201.94;2072217;28;20200;-66
2023/04/28 04:42:28;;;;;;;14.85;9.63;;;;;;;-146.25;86.69;52189.78;2070646;28;20038;-67
2023/04/28 04:43:43;;;;;;;16.05;9.98;;;;;;;-146.25;86.24;52197.88;2064298;28;20136;-67